createdAt,value
2023-11-07T00:02:16.020Z,86.88
2023-11-07T00:04:44.167Z,87.00
2023-11-07T00:12:35.979Z,86.53
2023-11-07T00:15:38.528Z,86.31
2023-11-07T00:18:41.934Z,86.31
2023-11-07T00:21:36.556Z,85.94
2023-11-07T00:28:48.277Z,85.87
2023-11-07T00:31:30.533Z,86.01
2023-11-07T00:34:01.655Z,86.04
2023-11-07T00:36:55.172Z,85.87
2023-11-07T00:40:09.457Z,85.91
2023-11-07T00:42:45.806Z,85.80
2023-11-07T00:45:24.270Z,85.55
2023-11-07T00:47:58.888Z,85.43
2023-11-07T00:50:37.337Z,85.61
2023-11-07T00:56:37.637Z,85.30
2023-11-07T00:59:35.384Z,85.09
2023-11-07T01:02:16.720Z,85.09
2023-11-07T01:05:25.541Z,85.23
2023-11-07T01:08:02.774Z,85.07
2023-11-07T01:10:54.979Z,84.94
2023-11-07T01:14:04.283Z,84.93
2023-11-07T01:16:39.828Z,85.10
2023-11-07T01:19:07.795Z,84.73
2023-11-07T01:21:35.843Z,84.45
2023-11-07T01:24:04.659Z,84.51
2023-11-07T01:26:32.946Z,84.54
2023-11-07T01:29:01.058Z,84.76
2023-11-07T01:31:29.470Z,84.56
2023-11-07T01:33:57.508Z,84.41
2023-11-07T01:36:25.566Z,84.40
2023-11-07T01:38:54.736Z,84.43
2023-11-07T01:41:22.740Z,84.45
2023-11-07T01:43:50.753Z,84.38
2023-11-07T01:46:18.971Z,84.57
2023-11-07T01:48:48.110Z,84.39
2023-11-07T01:51:17.151Z,84.51
2023-11-07T01:53:45.906Z,84.30
2023-11-07T01:56:13.969Z,84.24
2023-11-07T01:58:42.757Z,84.34
2023-11-07T02:01:11.386Z,84.25
2023-11-07T02:03:39.523Z,84.10
2023-11-07T02:06:08.360Z,84.31
2023-11-07T02:08:36.669Z,84.08
2023-11-07T02:11:05.546Z,84.23
2023-11-07T02:13:33.854Z,83.85
2023-11-07T02:16:01.804Z,84.02
2023-11-07T02:18:31.090Z,83.87
2023-11-07T02:21:03.409Z,83.63
2023-11-07T02:23:36.191Z,83.37
2023-11-07T02:26:04.725Z,83.72
2023-11-07T02:28:33.716Z,83.71
2023-11-07T02:31:01.907Z,83.90
2023-11-07T02:33:31.000Z,83.87
2023-11-07T02:35:59.285Z,84.09
2023-11-07T02:38:27.467Z,83.77
2023-11-07T02:40:56.483Z,83.85
2023-11-07T02:43:24.531Z,83.77
2023-11-07T02:45:53.889Z,83.83
2023-11-07T02:48:28.704Z,83.56
2023-11-07T02:50:56.960Z,83.37
2023-11-07T02:53:25.079Z,83.55
2023-11-07T02:55:53.073Z,83.37
2023-11-07T02:58:21.953Z,83.61
2023-11-07T03:00:50.504Z,83.72
2023-11-07T03:03:18.553Z,83.61
2023-11-07T03:05:46.856Z,83.62
2023-11-07T03:08:15.032Z,83.52
2023-11-07T03:10:42.984Z,83.48
2023-11-07T03:13:10.946Z,83.36
2023-11-07T03:15:39.093Z,83.47
2023-11-07T03:18:07.440Z,83.29
2023-11-07T03:20:37.403Z,83.40
2023-11-07T03:23:06.175Z,83.32
2023-11-07T03:25:34.100Z,83.67
2023-11-07T03:28:02.274Z,83.67
2023-11-07T03:30:30.448Z,83.62
2023-11-07T03:32:58.779Z,83.52
2023-11-07T03:35:28.486Z,83.32
2023-11-07T03:37:57.681Z,83.38
2023-11-07T03:40:25.769Z,83.50
2023-11-07T03:42:54.925Z,83.28
2023-11-07T03:45:22.917Z,83.47
2023-11-07T03:47:51.063Z,83.63
2023-11-07T03:50:19.169Z,83.56
2023-11-07T03:52:48.197Z,83.52
2023-11-07T03:55:16.356Z,83.49
2023-11-07T03:57:50.550Z,83.34
2023-11-07T04:00:20.837Z,83.20
2023-11-07T04:02:49.089Z,83.28
2023-11-07T04:05:17.603Z,83.07
2023-11-07T04:07:45.503Z,82.87
2023-11-07T04:10:14.490Z,83.12
2023-11-07T04:12:42.426Z,83.13
2023-11-07T04:15:11.183Z,83.31
2023-11-07T04:17:43.272Z,83.23
2023-11-07T04:20:12.114Z,83.31
2023-11-07T04:22:43.284Z,83.49
2023-11-07T04:25:11.862Z,83.50
2023-11-07T04:27:40.326Z,83.44
2023-11-07T04:30:09.426Z,83.52
2023-11-07T04:32:37.646Z,83.63
2023-11-07T04:35:07.532Z,84.17
2023-11-07T04:37:35.700Z,84.14
2023-11-07T04:40:05.687Z,84.40
2023-11-07T04:42:33.706Z,84.38
2023-11-07T04:45:02.952Z,84.47
2023-11-07T04:47:31.132Z,84.78
2023-11-07T04:50:00.466Z,84.78
2023-11-07T04:52:28.904Z,85.09
2023-11-07T04:54:57.244Z,84.59
2023-11-07T04:57:25.980Z,84.67
2023-11-07T04:59:54.539Z,84.80
2023-11-07T05:02:23.167Z,84.90
2023-11-07T05:04:54.370Z,84.95
2023-11-07T05:07:22.942Z,85.18
2023-11-07T05:09:54.137Z,85.33
2023-11-07T05:12:22.141Z,85.33
2023-11-07T05:14:50.750Z,85.02
2023-11-07T05:17:18.781Z,85.24
2023-11-07T05:19:46.795Z,85.13
2023-11-07T05:22:14.876Z,85.35
2023-11-07T05:24:42.967Z,85.38
2023-11-07T05:27:11.029Z,85.83
2023-11-07T05:29:38.976Z,85.66
2023-11-07T05:32:07.225Z,85.50
2023-11-07T05:34:41.299Z,85.62
2023-11-07T05:37:13.510Z,85.51
2023-11-07T05:39:45.478Z,85.37
2023-11-07T05:42:13.658Z,85.30
2023-11-07T05:44:41.671Z,85.38
2023-11-07T05:47:09.630Z,85.28
2023-11-07T05:49:37.512Z,85.46
2023-11-07T05:52:05.935Z,85.21
2023-11-07T05:54:33.978Z,85.45
2023-11-07T05:57:10.049Z,85.26
2023-11-07T05:59:38.305Z,85.36
2023-11-07T06:02:06.667Z,85.55
2023-11-07T06:04:35.739Z,85.82
2023-11-07T06:07:05.844Z,85.56
2023-11-07T06:09:34.271Z,85.69
2023-11-07T06:12:02.830Z,85.44
2023-11-07T06:14:31.618Z,85.92
2023-11-07T06:17:03.649Z,85.86
2023-11-07T06:19:31.701Z,86.24
2023-11-07T06:22:00.629Z,86.45
2023-11-07T06:24:28.753Z,86.31
2023-11-07T06:26:56.727Z,86.50
2023-11-07T06:29:26.309Z,86.50
2023-11-07T06:31:55.022Z,86.43
2023-11-07T06:34:24.159Z,86.29
2023-11-07T06:36:54.211Z,86.32
2023-11-07T06:39:24.936Z,86.23
2023-11-07T06:41:54.870Z,86.15
2023-11-07T06:44:23.149Z,86.15
2023-11-07T06:46:52.886Z,86.36
2023-11-07T06:49:21.048Z,86.25
2023-11-07T06:51:49.169Z,86.23
2023-11-07T06:54:17.260Z,86.22
2023-11-07T06:56:46.311Z,86.04
2023-11-07T06:59:21.214Z,86.19
2023-11-07T07:01:49.138Z,86.16
2023-11-07T07:04:17.510Z,86.17
2023-11-07T07:06:45.765Z,86.35
2023-11-07T07:09:15.277Z,86.23
2023-11-07T07:11:43.276Z,86.25
2023-11-07T07:14:12.071Z,86.36
2023-11-07T07:16:42.075Z,86.23
2023-11-07T07:19:10.192Z,86.49
2023-11-07T07:21:38.192Z,86.36
2023-11-07T07:24:22.682Z,86.48
2023-11-07T07:26:52.031Z,86.60
2023-11-07T07:29:20.089Z,86.75
2023-11-07T07:31:48.151Z,86.68
2023-11-07T07:34:16.636Z,86.85
2023-11-07T07:36:45.557Z,86.77
2023-11-07T07:39:36.107Z,86.84
2023-11-07T07:42:12.056Z,86.72
2023-11-07T07:44:40.189Z,86.68
2023-11-07T07:47:09.054Z,86.49
2023-11-07T07:49:42.110Z,86.32
2023-11-07T07:52:24.254Z,86.40
2023-11-07T07:55:09.731Z,86.23
2023-11-07T07:57:44.290Z,85.96
2023-11-07T08:00:25.733Z,86.07
2023-11-07T08:02:54.517Z,85.99
2023-11-07T08:05:23.364Z,85.52
2023-11-07T08:07:52.266Z,85.50
2023-11-07T08:10:23.524Z,85.77
2023-11-07T08:12:53.058Z,85.51
2023-11-07T08:15:21.079Z,85.42
2023-11-07T08:17:51.920Z,85.36
2023-11-07T08:20:24.378Z,84.87
2023-11-07T08:22:54.680Z,85.10
2023-11-07T08:25:23.493Z,85.07
2023-11-07T08:27:52.097Z,84.84
2023-11-07T08:30:27.881Z,84.47
2023-11-07T08:32:55.992Z,84.36
2023-11-07T08:35:24.378Z,84.22
2023-11-07T08:37:52.747Z,83.95
2023-11-07T08:40:22.548Z,83.53
2023-11-07T08:42:52.234Z,83.66
2023-11-07T08:45:22.241Z,83.33
2023-11-07T08:47:57.766Z,83.43
2023-11-07T08:50:27.148Z,83.18
2023-11-07T08:52:56.225Z,83.35
2023-11-07T08:55:30.963Z,83.45
2023-11-07T08:58:07.033Z,83.49
2023-11-07T09:00:45.855Z,83.36
2023-11-07T09:03:13.944Z,83.36
2023-11-07T09:05:42.270Z,83.45
2023-11-07T09:08:10.734Z,83.20
2023-11-07T09:10:39.323Z,83.08
2023-11-07T09:13:09.303Z,82.90
2023-11-07T09:15:37.434Z,82.53
2023-11-07T09:18:07.563Z,83.08
2023-11-07T09:20:35.707Z,82.67
2023-11-07T09:23:05.619Z,82.46
2023-11-07T09:25:33.634Z,82.38
2023-11-07T09:28:03.039Z,82.26
2023-11-07T09:30:31.033Z,82.50
2023-11-07T09:32:59.847Z,82.24
2023-11-07T09:35:28.480Z,82.17
2023-11-07T09:38:00.336Z,82.07
2023-11-07T09:40:28.519Z,81.69
2023-11-07T09:42:56.823Z,80.84
2023-11-07T09:45:25.659Z,79.92
2023-11-07T09:47:54.039Z,78.72
2023-11-07T09:50:25.932Z,78.80
2023-11-07T09:52:56.406Z,79.35
2023-11-07T09:55:29.502Z,79.86
2023-11-07T09:58:12.884Z,79.79
2023-11-07T10:00:53.977Z,79.97
2023-11-07T10:03:22.202Z,80.25
2023-11-07T10:05:52.062Z,80.09
2023-11-07T10:08:31.361Z,80.23
2023-11-07T10:11:10.360Z,80.30
2023-11-07T10:13:39.797Z,80.38
2023-11-07T10:18:47.975Z,80.31
2023-11-07T10:21:17.696Z,80.90
2023-11-07T10:23:45.792Z,80.96
2023-11-07T10:26:14.722Z,80.90
2023-11-07T10:28:42.958Z,81.01
2023-11-07T10:31:21.850Z,81.01
2023-11-07T10:33:49.957Z,81.05
2023-11-07T10:36:19.209Z,81.03
2023-11-07T10:38:48.109Z,80.89
2023-11-07T10:41:27.556Z,80.83
2023-11-07T10:43:55.451Z,80.82
2023-11-07T10:46:24.858Z,80.43
2023-11-07T10:48:54.700Z,80.36
2023-11-07T10:51:25.288Z,79.88
2023-11-07T10:53:53.359Z,80.33
2023-11-07T10:56:22.606Z,79.86
2023-11-07T10:59:00.686Z,79.21
2023-11-07T11:01:39.559Z,78.78
2023-11-07T11:04:10.307Z,79.12
2023-11-07T11:06:40.822Z,78.94
2023-11-07T11:09:12.693Z,79.21
2023-11-07T11:11:43.267Z,78.95
2023-11-07T11:14:11.249Z,78.82
2023-11-07T11:16:41.639Z,78.63
2023-11-07T11:19:36.302Z,78.39
2023-11-07T11:22:21.283Z,78.45
2023-11-07T11:24:57.882Z,78.32
2023-11-07T11:27:37.627Z,78.33
2023-11-07T11:30:07.234Z,78.10
2023-11-07T11:32:35.572Z,77.85
2023-11-07T11:35:13.000Z,77.88
2023-11-07T11:38:12.131Z,78.04
2023-11-07T11:40:55.489Z,78.01
2023-11-07T11:43:28.327Z,77.69
2023-11-07T11:46:01.006Z,77.78
2023-11-07T11:48:52.052Z,76.35
2023-11-07T11:51:40.719Z,76.18
2023-11-07T11:54:10.144Z,74.47
2023-11-07T11:56:50.602Z,73.15
2023-11-07T11:59:33.556Z,74.34
2023-11-07T12:02:06.678Z,75.04
2023-11-07T12:04:49.822Z,75.54
2023-11-07T12:07:22.682Z,75.71
2023-11-07T12:09:57.548Z,75.11
2023-11-07T12:12:26.629Z,75.46
2023-11-07T12:14:56.008Z,75.83
2023-11-07T12:17:27.377Z,75.76
2023-11-07T12:20:09.971Z,75.80
2023-11-07T12:22:42.408Z,74.80
2023-11-07T12:25:22.581Z,74.52
2023-11-07T12:28:05.642Z,73.07
2023-11-07T12:30:41.400Z,72.28
2023-11-07T12:33:11.247Z,71.41
2023-11-07T12:35:40.513Z,69.35
2023-11-07T12:38:11.424Z,67.77
2023-11-07T12:40:41.655Z,66.53
2023-11-07T12:43:10.508Z,65.20
2023-11-07T12:45:40.112Z,65.43
2023-11-07T12:48:15.138Z,65.78
2023-11-07T12:50:44.924Z,65.30
2023-11-07T12:53:16.197Z,64.21
2023-11-07T12:55:52.012Z,64.65
2023-11-07T12:58:31.516Z,62.55
2023-11-07T13:01:05.912Z,63.71
2023-11-07T13:03:35.639Z,62.16
2023-11-07T13:06:06.528Z,63.71
2023-11-07T13:08:37.434Z,64.90
2023-11-07T13:11:11.240Z,65.09
2023-11-07T13:13:40.560Z,65.65
2023-11-07T13:16:08.960Z,66.00
2023-11-07T13:18:40.914Z,66.67
2023-11-07T13:21:09.864Z,66.57
2023-11-07T13:23:39.391Z,66.89
2023-11-07T13:26:09.039Z,67.13
2023-11-07T13:28:38.352Z,66.91
2023-11-07T13:31:07.125Z,65.06
2023-11-07T13:33:47.739Z,66.22
2023-11-07T13:36:16.699Z,65.41
2023-11-07T13:38:48.668Z,64.20
2023-11-07T13:41:17.850Z,65.01
2023-11-07T13:43:46.303Z,65.60
2023-11-07T13:46:19.155Z,66.51
2023-11-07T13:48:51.967Z,65.34
2023-11-07T13:51:23.802Z,64.31
2023-11-07T13:53:52.753Z,63.75
2023-11-07T13:56:22.427Z,63.15
2023-11-07T13:58:50.513Z,61.13
2023-11-07T14:01:18.367Z,61.41
2023-11-07T14:03:46.812Z,60.37
2023-11-07T14:06:17.750Z,59.06
2023-11-07T14:08:47.224Z,59.95
2023-11-07T14:11:22.851Z,61.65
2023-11-07T14:13:53.021Z,61.36
2023-11-07T14:16:21.041Z,62.15
2023-11-07T14:18:50.750Z,62.67
2023-11-07T14:21:19.605Z,63.42
2023-11-07T14:23:48.250Z,63.51
2023-11-07T14:26:17.553Z,64.22
2023-11-07T14:28:55.149Z,64.68
2023-11-07T14:31:30.739Z,65.38
2023-11-07T14:34:00.274Z,65.56
2023-11-07T14:36:29.069Z,65.96
2023-11-07T14:38:57.298Z,66.44
2023-11-07T14:41:26.246Z,66.93
2023-11-07T14:44:01.058Z,67.07
2023-11-07T14:46:29.748Z,67.37
2023-11-07T14:48:58.330Z,67.64
2023-11-07T14:51:26.549Z,67.95
2023-11-07T14:53:54.879Z,68.27
2023-11-07T14:56:24.455Z,68.72
2023-11-07T14:58:52.395Z,68.95
2023-11-07T15:01:20.430Z,69.33
2023-11-07T15:03:48.708Z,69.72
2023-11-07T15:06:17.362Z,70.10
2023-11-07T15:08:45.472Z,70.41
2023-11-07T15:11:13.905Z,70.30
2023-11-07T15:13:43.160Z,70.42
2023-11-07T15:16:31.039Z,70.51
2023-11-07T15:19:04.341Z,71.04
2023-11-07T15:21:32.461Z,71.06
2023-11-07T15:24:00.425Z,71.16
2023-11-07T15:26:28.541Z,71.24
2023-11-07T15:28:56.695Z,71.42
2023-11-07T15:31:28.001Z,71.54
2023-11-07T15:33:56.270Z,72.00
2023-11-07T15:36:24.895Z,72.16
2023-11-07T15:38:54.251Z,71.96
2023-11-07T15:41:22.515Z,72.01
2023-11-07T15:43:52.961Z,71.94
2023-11-07T15:46:23.171Z,71.96
2023-11-07T15:48:51.542Z,72.12
2023-11-07T15:51:19.702Z,72.21
2023-11-07T15:53:47.930Z,72.38
2023-11-07T15:56:16.072Z,72.72
2023-11-07T15:58:44.391Z,72.56
2023-11-07T16:01:12.590Z,72.79
2023-11-07T16:03:40.813Z,72.78
2023-11-07T16:06:17.989Z,72.91
2023-11-07T16:08:47.062Z,72.86
2023-11-07T16:11:18.228Z,73.12
2023-11-07T16:13:49.340Z,73.10
2023-11-07T16:16:18.027Z,73.18
2023-11-07T16:18:51.721Z,73.37
2023-11-07T16:21:24.493Z,73.43
2023-11-07T16:23:52.642Z,73.55
2023-11-07T16:26:20.615Z,73.48
2023-11-07T16:28:48.588Z,73.50
2023-11-07T16:31:16.556Z,73.61
2023-11-07T16:33:44.618Z,73.72
2023-11-07T16:36:13.086Z,73.77
2023-11-07T16:38:41.295Z,73.82
2023-11-07T16:41:09.313Z,73.91
2023-11-07T16:43:37.469Z,74.04
2023-11-07T16:46:05.667Z,74.03
2023-11-07T16:48:33.820Z,74.08
2023-11-07T16:51:02.154Z,74.09
2023-11-07T16:53:30.470Z,74.37
2023-11-07T16:55:59.470Z,74.47
2023-11-07T16:58:27.657Z,74.49
2023-11-07T17:00:59.802Z,74.48
2023-11-07T17:03:28.616Z,74.53
2023-11-07T17:05:57.113Z,74.88
2023-11-07T17:08:26.112Z,74.94
2023-11-07T17:10:54.696Z,75.11
2023-11-07T17:13:22.791Z,75.42
2023-11-07T17:15:54.979Z,75.58
2023-11-07T17:18:23.053Z,75.62
2023-11-07T17:20:51.864Z,75.66
2023-11-07T17:23:22.549Z,75.95
2023-11-07T17:25:50.448Z,76.26
2023-11-07T17:28:21.315Z,76.11
2023-11-07T17:30:51.933Z,76.04
2023-11-07T17:33:20.230Z,76.08
2023-11-07T17:35:48.476Z,75.90
2023-11-07T17:38:22.839Z,75.85
2023-11-07T17:40:53.838Z,75.80
2023-11-07T17:43:22.430Z,75.81
2023-11-07T17:45:50.799Z,75.77
2023-11-07T17:48:19.488Z,75.84
2023-11-07T17:50:48.865Z,75.71
2023-11-07T17:53:17.356Z,75.81
2023-11-07T17:55:45.493Z,75.91
2023-11-07T17:58:13.650Z,75.98
2023-11-07T18:00:42.611Z,76.05
2023-11-07T18:03:10.862Z,76.08
2023-11-07T18:05:43.198Z,76.10
2023-11-07T18:08:11.873Z,76.22
2023-11-07T18:10:41.011Z,76.28
2023-11-07T18:13:13.441Z,76.28
2023-11-07T18:15:46.212Z,76.39
2023-11-07T18:18:14.458Z,76.58
2023-11-07T18:20:43.860Z,76.56
2023-11-07T18:23:14.098Z,76.64
2023-11-07T18:25:42.335Z,76.76
2023-11-07T18:28:12.112Z,76.96
2023-11-07T18:30:40.479Z,76.84
2023-11-07T18:33:09.129Z,76.92
2023-11-07T18:35:43.275Z,76.88
2023-11-07T18:38:38.321Z,76.88
2023-11-07T18:41:13.339Z,76.97
2023-11-07T18:43:45.375Z,76.90
2023-11-07T18:46:14.457Z,76.71
2023-11-07T18:48:44.798Z,76.64
2023-11-07T18:51:16.572Z,76.54
2023-11-07T18:53:46.228Z,76.66
2023-11-07T18:56:20.155Z,76.57
2023-11-07T18:58:55.386Z,76.40
2023-11-07T19:01:47.728Z,76.41
2023-11-07T19:04:16.155Z,76.35
2023-11-07T19:06:44.493Z,76.48
2023-11-07T19:09:18.920Z,76.42
2023-11-07T19:11:55.127Z,76.45
2023-11-07T19:14:23.632Z,76.41
2023-11-07T19:16:54.988Z,76.34
2023-11-07T19:19:43.489Z,76.11
2023-11-07T19:22:11.729Z,76.08
2023-11-07T19:24:39.814Z,76.20
2023-11-07T19:27:10.213Z,76.06
2023-11-07T19:29:41.507Z,76.10
2023-11-07T19:32:23.923Z,75.98
2023-11-07T19:34:52.497Z,75.97
2023-11-07T19:37:20.593Z,75.96
2023-11-07T19:39:54.706Z,75.90
2023-11-07T19:42:30.380Z,75.89
2023-11-07T19:45:07.653Z,75.91
2023-11-07T19:47:39.832Z,75.92
2023-11-07T19:50:08.890Z,75.96
2023-11-07T19:52:37.470Z,75.92
2023-11-07T19:55:06.538Z,75.94
2023-11-07T19:57:34.848Z,75.81
2023-11-07T20:00:03.462Z,75.91
2023-11-07T20:02:32.672Z,76.07
2023-11-07T20:05:01.381Z,76.17
2023-11-07T20:07:30.206Z,76.07
2023-11-07T20:09:59.656Z,76.27
2023-11-07T20:12:28.141Z,76.28
2023-11-07T20:14:56.375Z,76.17
2023-11-07T20:17:33.296Z,76.33
2023-11-07T20:20:09.803Z,76.18
2023-11-07T20:22:38.464Z,76.28
2023-11-07T20:25:10.024Z,76.15
2023-11-07T20:27:40.313Z,76.42
2023-11-07T20:30:12.202Z,76.41
2023-11-07T20:32:40.538Z,76.45
2023-11-07T20:35:11.175Z,76.49
2023-11-07T20:37:39.394Z,76.63
2023-11-07T20:40:11.269Z,76.69
2023-11-07T20:42:39.643Z,76.76
2023-11-07T20:45:13.376Z,76.90
2023-11-07T20:47:42.073Z,77.10
2023-11-07T20:50:10.415Z,77.03
2023-11-07T20:52:39.180Z,77.09
2023-11-07T20:55:07.858Z,77.06
2023-11-07T20:57:35.888Z,77.11
2023-11-07T21:00:04.685Z,76.98
2023-11-07T21:02:32.785Z,77.11
2023-11-07T21:05:00.902Z,77.18
2023-11-07T21:07:41.229Z,77.24
2023-11-07T21:10:12.255Z,77.20
2023-11-07T21:12:40.933Z,77.37
2023-11-07T21:15:11.426Z,77.48
2023-11-07T21:17:42.381Z,77.49
2023-11-07T21:20:19.781Z,77.56
2023-11-07T21:22:48.046Z,77.63
2023-11-07T21:25:16.666Z,77.81
2023-11-07T21:27:44.853Z,77.80
2023-11-07T21:30:16.282Z,77.91
2023-11-07T21:32:44.954Z,77.88
2023-11-07T21:35:19.497Z,77.86
2023-11-07T21:37:49.437Z,77.86
2023-11-07T21:40:18.631Z,78.00
2023-11-07T21:42:46.821Z,77.85
2023-11-07T21:45:16.031Z,77.87
2023-11-07T21:47:44.125Z,77.83
2023-11-07T21:50:12.737Z,77.72
2023-11-07T21:52:41.186Z,77.93
2023-11-07T21:55:09.908Z,77.82
2023-11-07T21:57:38.714Z,77.89
2023-11-07T22:00:09.381Z,78.02
2023-11-07T22:02:44.888Z,77.94
2023-11-07T22:05:17.532Z,77.94
2023-11-07T22:07:45.932Z,78.04
2023-11-07T22:10:17.454Z,78.08
2023-11-07T22:12:47.271Z,78.24
2023-11-07T22:15:15.357Z,78.17
2023-11-07T22:17:44.456Z,77.98
2023-11-07T22:20:20.482Z,78.45
2023-11-07T22:22:48.993Z,78.43
2023-11-07T22:25:17.171Z,78.64
2023-11-07T22:27:45.300Z,78.70
2023-11-07T22:30:14.036Z,78.60
2023-11-07T22:32:42.945Z,78.84
2023-11-07T22:35:11.538Z,78.75
2023-11-07T22:37:40.555Z,78.67
2023-11-07T22:40:11.124Z,78.73
2023-11-07T22:42:41.587Z,78.70
2023-11-07T22:45:11.703Z,78.83
2023-11-07T22:47:40.254Z,78.86
2023-11-07T22:50:08.934Z,78.87
2023-11-07T22:52:43.624Z,78.91
2023-11-07T22:55:12.836Z,78.73
2023-11-07T22:57:41.978Z,78.66
2023-11-07T23:00:12.044Z,78.73
2023-11-07T23:02:43.120Z,78.81
2023-11-07T23:05:11.937Z,78.85
2023-11-07T23:07:40.142Z,78.85
2023-11-07T23:10:16.520Z,78.83
2023-11-07T23:12:45.455Z,78.60
2023-11-07T23:15:13.549Z,78.70
2023-11-07T23:17:41.845Z,78.68
2023-11-07T23:20:10.452Z,78.87
2023-11-07T23:22:38.725Z,78.73
2023-11-07T23:25:07.231Z,78.75
2023-11-07T23:27:35.644Z,78.73
2023-11-07T23:30:11.211Z,78.71
2023-11-07T23:32:40.737Z,78.57
2023-11-07T23:35:10.909Z,78.77
2023-11-07T23:37:39.639Z,78.87
2023-11-07T23:40:12.124Z,78.81
2023-11-07T23:42:44.554Z,78.86
2023-11-07T23:45:12.809Z,79.03
2023-11-07T23:47:41.497Z,79.01
2023-11-07T23:50:11.626Z,79.13
2023-11-07T23:52:40.781Z,79.20
2023-11-07T23:55:15.520Z,79.32
2023-11-07T23:57:44.269Z,79.46
